Time;durP1;ratioP1;P1;durP2;ratioP2;P2;SDS_P1;SDS_P2;PMS_P1;PMS_P2;Temp;Humidity;BMP_temperature;BMP_pressure;BME280_temperature;BME280_humidity;BME280_pressure;Samples;Min_cycle;Max_cycle;Signal;HPM_P1;HPM_P2
2023/07/02 00:00:21;;;;;;;20.37;13.13;;;;;;;;;;5048297;28;20598;-64
2023/07/02 00:02:48;;;;;;;19.67;13.20;;;;;;;;;;5049233;28;20202;-65
2023/07/02 00:05:17;;;;;;;19.37;13.03;;;;;;;;;;5055464;28;20929;-65
2023/07/02 00:07:46;;;;;;;20.83;13.93;;;;;;;;;;5058739;28;20266;-65
2023/07/02 00:10:14;;;;;;;17.77;13.33;;;;;;;;;;5055901;28;20234;-65
2023/07/02 00:12:44;;;;;;;22.40;14.03;;;;;;;;;;5057289;28;20207;-64
2023/07/02 00:15:12;;;;;;;17.23;13.43;;;;;;;;;;5057170;28;20203;-65
2023/07/02 00:17:40;;;;;;;17.43;12.87;;;;;;;;;;5060091;28;20199;-64
2023/07/02 00:20:14;;;;;;;21.43;13.33;;;;;;;;;;5059778;28;20678;-65
2023/07/02 00:22:44;;;;;;;20.50;14.13;;;;;;;;;;5057644;28;20204;-65
2023/07/02 00:25:14;;;;;;;22.87;14.17;;;;;;;;;;5058402;28;20200;-65
2023/07/02 00:27:42;;;;;;;18.33;13.67;;;;;;;;;;5055686;28;20246;-65
2023/07/02 00:30:10;;;;;;;21.87;13.57;;;;;;;;;;5060134;28;20742;-65
2023/07/02 00:32:38;;;;;;;20.47;14.73;;;;;;;;;;5058249;28;20270;-65
2023/07/02 00:35:06;;;;;;;21.63;14.67;;;;;;;;;;5058600;28;20200;-65
2023/07/02 00:37:34;;;;;;;20.50;14.53;;;;;;;;;;5057800;28;20212;-65
2023/07/02 00:40:02;;;;;;;24.80;14.20;;;;;;;;;;5058858;28;20316;-65
2023/07/02 00:42:32;;;;;;;21.63;14.43;;;;;;;;;;5058637;28;20201;-65
2023/07/02 00:45:02;;;;;;;23.33;15.50;;;;;;;;;;5059240;28;20205;-65
2023/07/02 00:47:31;;;;;;;24.47;15.13;;;;;;;;;;5056647;28;20195;-65
2023/07/02 00:49:59;;;;;;;21.57;14.37;;;;;;;;;;5056624;28;20222;-65
2023/07/02 00:52:27;;;;;;;24.83;14.97;;;;;;;;;;5059840;28;20196;-65
2023/07/02 00:54:54;;;;;;;24.13;15.03;;;;;;;;;;5058948;28;20732;-65
2023/07/02 00:57:22;;;;;;;25.17;15.20;;;;;;;;;;5056865;28;20210;-65
2023/07/02 00:59:51;;;;;;;22.37;14.83;;;;;;;;;;5056837;28;20250;-65
2023/07/02 01:02:19;;;;;;;22.60;15.67;;;;;;;;;;5056719;28;20288;-65
2023/07/02 01:04:49;;;;;;;22.70;15.57;;;;;;;;;;5057884;28;20209;-65
2023/07/02 01:07:17;;;;;;;23.20;15.03;;;;;;;;;;5058464;28;20200;-65
2023/07/02 01:09:45;;;;;;;28.13;16.63;;;;;;;;;;5056066;28;20247;-65
2023/07/02 01:12:15;;;;;;;23.90;15.80;;;;;;;;;;5057248;28;20203;-65
2023/07/02 01:14:44;;;;;;;22.07;15.10;;;;;;;;;;5056902;28;20208;-65
2023/07/02 01:17:19;;;;;;;23.50;15.17;;;;;;;;;;5058068;28;20768;-65
2023/07/02 01:19:51;;;;;;;22.83;15.80;;;;;;;;;;5056327;28;20227;-65
2023/07/02 01:22:19;;;;;;;22.27;15.57;;;;;;;;;;5053495;28;20206;-65
2023/07/02 01:24:48;;;;;;;21.73;16.20;;;;;;;;;;5039780;28;20305;-65
2023/07/02 01:27:17;;;;;;;20.90;14.40;;;;;;;;;;5039824;28;20711;-65
2023/07/02 01:29:46;;;;;;;23.83;14.83;;;;;;;;;;5038854;28;20672;-65
2023/07/02 01:32:15;;;;;;;26.60;16.27;;;;;;;;;;5039455;28;20243;-65
2023/07/02 01:34:43;;;;;;;25.37;16.13;;;;;;;;;;5039520;28;20212;-66
2023/07/02 01:37:13;;;;;;;23.67;15.83;;;;;;;;;;5039266;28;20650;-65
2023/07/02 01:39:40;;;;;;;18.80;14.10;;;;;;;;;;5040417;28;20663;-65
2023/07/02 01:42:09;;;;;;;25.87;15.20;;;;;;;;;;5039880;28;20214;-65
2023/07/02 01:44:37;;;;;;;21.77;14.90;;;;;;;;;;5039377;28;20211;-66
2023/07/02 01:47:05;;;;;;;22.97;15.03;;;;;;;;;;5039160;28;20570;-65
2023/07/02 01:49:33;;;;;;;19.53;12.97;;;;;;;;;;5039374;28;20204;-66
2023/07/02 01:52:01;;;;;;;22.07;14.40;;;;;;;;;;5043797;28;20198;-65
2023/07/02 01:54:31;;;;;;;23.87;15.33;;;;;;;;;;5047348;28;20572;-65
2023/07/02 01:56:59;;;;;;;26.17;15.10;;;;;;;;;;5039036;28;20214;-65
2023/07/02 01:59:27;;;;;;;21.30;14.33;;;;;;;;;;5044952;28;20208;-65
2023/07/02 02:01:54;;;;;;;22.53;14.30;;;;;;;;;;5039675;28;20234;-65
2023/07/02 02:04:22;;;;;;;22.47;14.50;;;;;;;;;;5039252;28;20219;-65
2023/07/02 02:06:50;;;;;;;19.67;14.93;;;;;;;;;;5038937;28;20670;-65
2023/07/02 02:09:18;;;;;;;21.60;14.50;;;;;;;;;;5039074;28;20208;-65
2023/07/02 02:11:48;;;;;;;22.00;14.87;;;;;;;;;;5038646;28;20311;-65
2023/07/02 02:14:16;;;;;;;20.33;14.93;;;;;;;;;;5038576;28;20213;-65
2023/07/02 02:16:46;;;;;;;24.27;14.40;;;;;;;;;;5038747;28;20210;-65
2023/07/02 02:19:14;;;;;;;22.33;14.73;;;;;;;;;;5038587;28;20211;-66
2023/07/02 02:21:42;;;;;;;23.90;15.00;;;;;;;;;;5038581;28;20227;-65
2023/07/02 02:24:10;;;;;;;22.77;14.30;;;;;;;;;;5038922;28;20203;-65
2023/07/02 02:26:38;;;;;;;22.57;14.50;;;;;;;;;;5038520;28;20211;-64
2023/07/02 02:29:08;;;;;;;20.77;13.43;;;;;;;;;;5038574;28;20242;-65
2023/07/02 02:31:36;;;;;;;20.43;14.20;;;;;;;;;;5038727;28;20222;-63
2023/07/02 02:34:04;;;;;;;20.63;12.90;;;;;;;;;;5038666;28;20654;-64
2023/07/02 02:36:32;;;;;;;21.90;13.90;;;;;;;;;;5038551;28;20203;-63
2023/07/02 02:39:00;;;;;;;19.40;14.23;;;;;;;;;;5038654;28;20290;-64
2023/07/02 02:41:27;;;;;;;22.03;14.47;;;;;;;;;;5043330;28;20223;-64
2023/07/02 02:43:55;;;;;;;31.50;14.37;;;;;;;;;;5038214;28;20214;-63
2023/07/02 02:46:24;;;;;;;24.23;14.30;;;;;;;;;;5038322;28;20207;-65
2023/07/02 02:48:52;;;;;;;25.20;15.13;;;;;;;;;;5038172;28;20655;-64
2023/07/02 02:51:20;;;;;;;21.00;13.47;;;;;;;;;;5038018;28;20219;-64
2023/07/02 02:53:47;;;;;;;22.63;13.43;;;;;;;;;;5057391;28;20207;-63
2023/07/02 02:56:16;;;;;;;22.60;14.77;;;;;;;;;;5057026;28;20207;-65
2023/07/02 02:58:44;;;;;;;21.50;14.53;;;;;;;;;;5052592;28;20211;-64
2023/07/02 03:01:12;;;;;;;23.20;14.63;;;;;;;;;;5040858;28;20236;-64
2023/07/02 03:03:45;;;;;;;22.00;14.43;;;;;;;;;;5038072;28;20568;-64
2023/07/02 03:06:14;;;;;;;22.53;14.53;;;;;;;;;;5038047;28;20207;-64
2023/07/02 03:08:42;;;;;;;24.13;15.20;;;;;;;;;;5038300;28;20207;-64
2023/07/02 03:11:10;;;;;;;20.83;14.37;;;;;;;;;;5037154;28;20224;-63
2023/07/02 03:13:37;;;;;;;23.50;14.73;;;;;;;;;;5037831;28;20213;-63
2023/07/02 03:16:05;;;;;;;23.23;14.10;;;;;;;;;;5038019;28;20235;-64
2023/07/02 03:18:33;;;;;;;22.03;14.47;;;;;;;;;;5038075;28;20673;-63
2023/07/02 03:21:02;;;;;;;18.40;13.80;;;;;;;;;;5044048;28;20257;-64
2023/07/02 03:23:30;;;;;;;22.93;14.97;;;;;;;;;;5057593;28;20206;-64
2023/07/02 03:25:58;;;;;;;19.20;13.73;;;;;;;;;;5057927;28;20674;-63
2023/07/02 03:28:26;;;;;;;23.43;15.03;;;;;;;;;;5057370;28;20221;-64
2023/07/02 03:30:53;;;;;;;23.60;15.30;;;;;;;;;;5058007;28;20613;-63
2023/07/02 03:33:21;;;;;;;21.90;15.00;;;;;;;;;;5057390;28;20239;-64
2023/07/02 03:35:49;;;;;;;25.80;14.80;;;;;;;;;;5057829;28;20650;-63
2023/07/02 03:38:19;;;;;;;25.17;15.27;;;;;;;;;;5057664;28;20202;-63
2023/07/02 03:40:47;;;;;;;23.40;14.53;;;;;;;;;;5048260;28;20691;-63
2023/07/02 03:43:15;;;;;;;32.40;18.33;;;;;;;;;;5037616;28;20220;-64
2023/07/02 03:45:42;;;;;;;34.23;20.30;;;;;;;;;;5037695;28;20212;-64
2023/07/02 03:48:10;;;;;;;34.77;20.83;;;;;;;;;;5037368;28;20685;-64
2023/07/02 03:50:38;;;;;;;33.53;22.03;;;;;;;;;;5037314;28;20310;-63
2023/07/02 03:53:06;;;;;;;29.10;20.03;;;;;;;;;;5050445;28;20199;-64
2023/07/02 03:55:35;;;;;;;23.87;16.63;;;;;;;;;;5037633;28;20211;-64
2023/07/02 03:58:02;;;;;;;19.87;13.33;;;;;;;;;;5037409;28;20211;-64
2023/07/02 04:00:30;;;;;;;24.30;13.17;;;;;;;;;;5044915;28;20227;-63
2023/07/02 04:02:58;;;;;;;23.93;12.90;;;;;;;;;;5037419;28;20229;-64
2023/07/02 04:05:25;;;;;;;21.30;13.43;;;;;;;;;;5037269;28;20551;-63
2023/07/02 04:07:53;;;;;;;16.80;12.70;;;;;;;;;;5037250;28;20290;-63
2023/07/02 04:10:21;;;;;;;19.17;13.20;;;;;;;;;;5037396;28;20231;-63
2023/07/02 04:12:50;;;;;;;17.80;13.10;;;;;;;;;;5037151;28;20204;-65
2023/07/02 04:15:18;;;;;;;21.03;12.97;;;;;;;;;;5037200;28;20390;-65
2023/07/02 04:17:45;;;;;;;23.30;13.90;;;;;;;;;;5037423;28;20663;-65
2023/07/02 04:20:13;;;;;;;20.77;12.93;;;;;;;;;;5036854;28;20286;-64
2023/07/02 04:22:41;;;;;;;20.00;13.70;;;;;;;;;;5049605;28;20312;-65
2023/07/02 04:25:09;;;;;;;20.37;13.07;;;;;;;;;;5041158;28;20218;-65
2023/07/02 04:27:58;;;;;;;27.67;17.57;;;;;;;;;;5049118;28;20646;-65
2023/07/02 04:30:26;;;;;;;27.03;17.03;;;;;;;;;;5074298;28;20304;-64
2023/07/02 04:32:54;;;;;;;26.57;17.60;;;;;;;;;;5040563;28;20369;-64
2023/07/02 04:35:22;;;;;;;26.90;17.17;;;;;;;;;;5040879;28;20207;-64
2023/07/02 04:37:50;;;;;;;25.03;16.50;;;;;;;;;;5040837;28;20674;-64
2023/07/02 04:40:18;;;;;;;27.43;18.57;;;;;;;;;;5044990;28;20231;-64
2023/07/02 04:42:46;;;;;;;25.43;16.17;;;;;;;;;;5040579;28;20238;-64
2023/07/02 04:45:16;;;;;;;24.30;16.27;;;;;;;;;;5040712;28;20274;-64
2023/07/02 04:47:45;;;;;;;29.80;16.23;;;;;;;;;;5040485;28;20727;-64
2023/07/02 04:50:13;;;;;;;25.93;16.07;;;;;;;;;;5064928;28;20226;-64
2023/07/02 04:52:41;;;;;;;24.00;14.57;;;;;;;;;;5069034;28;20220;-64
2023/07/02 04:55:09;;;;;;;24.07;15.20;;;;;;;;;;5070184;28;20202;-64
2023/07/02 04:57:37;;;;;;;22.03;15.47;;;;;;;;;;5063303;28;20199;-64
2023/07/02 05:00:05;;;;;;;18.90;13.77;;;;;;;;;;5052570;28;20593;-64
2023/07/02 05:02:35;;;;;;;20.97;13.87;;;;;;;;;;5065043;28;20281;-64
2023/07/02 05:05:03;;;;;;;24.43;14.47;;;;;;;;;;5040633;28;20211;-64
2023/07/02 05:07:31;;;;;;;21.73;12.40;;;;;;;;;;5050175;28;20264;-64
2023/07/02 05:09:59;;;;;;;21.37;14.17;;;;;;;;;;5070381;28;20309;-64
2023/07/02 05:12:27;;;;;;;21.43;14.10;;;;;;;;;;5069410;28;20282;-64
2023/07/02 05:14:58;;;;;;;21.33;14.20;;;;;;;;;;5059157;28;20570;-65
2023/07/02 05:17:26;;;;;;;21.07;14.50;;;;;;;;;;5039894;28;20662;-65
2023/07/02 05:19:56;;;;;;;24.10;14.37;;;;;;;;;;5039721;28;20253;-64
2023/07/02 05:22:23;;;;;;;18.90;13.87;;;;;;;;;;5039670;28;20632;-64
2023/07/02 05:24:51;;;;;;;22.27;13.77;;;;;;;;;;5040122;28;20246;-64
2023/07/02 05:27:21;;;;;;;27.67;14.33;;;;;;;;;;5039827;28;20207;-64
2023/07/02 05:29:49;;;;;;;23.27;15.00;;;;;;;;;;5039608;28;20238;-64
2023/07/02 05:32:20;;;;;;;24.10;14.97;;;;;;;;;;5039721;28;20239;-64
2023/07/02 05:34:48;;;;;;;20.10;13.70;;;;;;;;;;5038655;28;20215;-64
2023/07/02 05:37:17;;;;;;;20.27;14.23;;;;;;;;;;5039759;28;20210;-64
2023/07/02 05:39:45;;;;;;;23.13;14.07;;;;;;;;;;5062784;28;20407;-65
2023/07/02 05:42:13;;;;;;;22.80;14.33;;;;;;;;;;5047257;28;20235;-64
2023/07/02 05:44:40;;;;;;;21.20;14.60;;;;;;;;;;5050361;28;20211;-64
2023/07/02 05:47:08;;;;;;;21.73;13.73;;;;;;;;;;5053546;28;20278;-64
2023/07/02 05:49:36;;;;;;;21.63;14.80;;;;;;;;;;5039125;28;20584;-64
2023/07/02 05:52:06;;;;;;;23.60;14.73;;;;;;;;;;5059146;28;20576;-64
2023/07/02 05:54:35;;;;;;;21.37;13.67;;;;;;;;;;5064998;28;20194;-64
2023/07/02 05:57:04;;;;;;;22.60;14.47;;;;;;;;;;5064572;28;20202;-64
2023/07/02 05:59:32;;;;;;;19.83;13.67;;;;;;;;;;5064438;28;20198;-64
2023/07/02 06:01:59;;;;;;;22.60;13.80;;;;;;;;;;5066831;28;20198;-64
2023/07/02 06:04:27;;;;;;;19.10;13.13;;;;;;;;;;5066317;28;20646;-64
2023/07/02 06:06:55;;;;;;;20.13;13.80;;;;;;;;;;5060565;28;20639;-65
2023/07/02 06:09:23;;;;;;;21.13;13.43;;;;;;;;;;5067898;28;20273;-64
2023/07/02 06:11:52;;;;;;;21.87;14.00;;;;;;;;;;5066526;28;20645;-64
2023/07/02 06:14:20;;;;;;;20.83;13.97;;;;;;;;;;5050246;28;20604;-64
2023/07/02 06:16:47;;;;;;;23.27;13.47;;;;;;;;;;5039066;28;20234;-64
2023/07/02 06:19:15;;;;;;;21.37;13.67;;;;;;;;;;5038932;28;20239;-64
2023/07/02 06:21:43;;;;;;;22.43;13.47;;;;;;;;;;5038937;28;20227;-64
2023/07/02 06:24:11;;;;;;;19.90;13.83;;;;;;;;;;5038745;28;20234;-64
2023/07/02 06:26:39;;;;;;;22.90;14.97;;;;;;;;;;5043762;28;20218;-64
2023/07/02 06:29:08;;;;;;;19.80;13.60;;;;;;;;;;5056764;28;20214;-64
2023/07/02 06:31:36;;;;;;;21.60;14.80;;;;;;;;;;5053125;28;20229;-64
2023/07/02 06:34:03;;;;;;;22.33;14.23;;;;;;;;;;5048435;28;20659;-64
2023/07/02 06:36:31;;;;;;;23.70;14.87;;;;;;;;;;5041718;28;20207;-64
2023/07/02 06:38:59;;;;;;;21.50;14.40;;;;;;;;;;5040750;28;20218;-64
2023/07/02 06:41:27;;;;;;;19.87;14.37;;;;;;;;;;5050803;28;20562;-63
2023/07/02 06:43:54;;;;;;;19.37;13.43;;;;;;;;;;5038097;28;20323;-64
2023/07/02 06:46:23;;;;;;;19.37;12.43;;;;;;;;;;5038162;28;20203;-64
2023/07/02 06:48:51;;;;;;;21.03;13.33;;;;;;;;;;5042672;28;20198;-64
2023/07/02 06:51:20;;;;;;;20.50;13.40;;;;;;;;;;5057650;28;20233;-65
2023/07/02 06:53:51;;;;;;;20.43;13.70;;;;;;;;;;5049389;28;20278;-63
2023/07/02 06:56:19;;;;;;;19.13;13.30;;;;;;;;;;5047085;28;20302;-64
2023/07/02 06:58:46;;;;;;;19.67;12.60;;;;;;;;;;5039078;28;20659;-65
2023/07/02 07:01:14;;;;;;;18.87;12.57;;;;;;;;;;5041822;28;20250;-64
2023/07/02 07:03:43;;;;;;;20.07;12.70;;;;;;;;;;5038153;28;20227;-65
2023/07/02 07:06:12;;;;;;;679.23;416.83;;;;;;;;;;5037886;28;20205;-69
2023/07/02 07:08:40;;;;;;;99.70;56.53;;;;;;;;;;5038195;28;20239;-65
2023/07/02 07:11:08;;;;;;;279.47;171.43;;;;;;;;;;5037654;28;20228;-66
2023/07/02 07:13:35;;;;;;;25.07;16.77;;;;;;;;;;5037672;28;20208;-64
2023/07/02 07:16:03;;;;;;;15.00;10.17;;;;;;;;;;5037957;28;20211;-65
2023/07/02 07:18:31;;;;;;;15.23;9.43;;;;;;;;;;5038022;28;20290;-64
2023/07/02 07:21:01;;;;;;;14.00;9.83;;;;;;;;;;5037865;28;20235;-64
2023/07/02 07:23:29;;;;;;;13.83;9.33;;;;;;;;;;5037897;28;20240;-64
2023/07/02 07:25:57;;;;;;;12.23;9.30;;;;;;;;;;5038006;28;20291;-64
2023/07/02 07:28:24;;;;;;;11.97;8.10;;;;;;;;;;5037643;28;20212;-64
2023/07/02 07:30:52;;;;;;;12.27;7.97;;;;;;;;;;5037808;28;20763;-64
2023/07/02 07:33:20;;;;;;;12.47;7.73;;;;;;;;;;5051009;28;20227;-64
2023/07/02 07:35:48;;;;;;;12.87;8.23;;;;;;;;;;5042595;28;20205;-64
2023/07/02 07:38:18;;;;;;;13.67;8.70;;;;;;;;;;5052367;28;20217;-64
2023/07/02 07:40:46;;;;;;;12.43;8.90;;;;;;;;;;5049099;28;20238;-65
2023/07/02 07:43:15;;;;;;;11.83;8.07;;;;;;;;;;5037357;28;20316;-64
2023/07/02 07:45:42;;;;;;;10.87;8.23;;;;;;;;;;5037764;28;20215;-64
2023/07/02 07:48:10;;;;;;;10.50;7.30;;;;;;;;;;5037643;28;20212;-64
2023/07/02 07:50:38;;;;;;;8.77;6.43;;;;;;;;;;5037346;28;20597;-64
2023/07/02 07:53:06;;;;;;;12.53;7.20;;;;;;;;;;5037492;28;20287;-64
2023/07/02 07:55:35;;;;;;;9.57;6.97;;;;;;;;;;5037624;28;20216;-64
2023/07/02 07:58:03;;;;;;;9.80;6.70;;;;;;;;;;5039264;28;20298;-64
2023/07/02 08:00:30;;;;;;;10.77;7.13;;;;;;;;;;5046086;28;20593;-65
2023/07/02 08:02:59;;;;;;;12.03;6.60;;;;;;;;;;5041117;28;20258;-64
2023/07/02 08:05:27;;;;;;;8.50;5.70;;;;;;;;;;5041390;28;20214;-65
2023/07/02 08:07:55;;;;;;;7.70;5.83;;;;;;;;;;5040940;28;20208;-64
2023/07/02 08:10:23;;;;;;;9.27;5.90;;;;;;;;;;5049393;28;20764;-64
2023/07/02 08:12:53;;;;;;;6.70;4.47;;;;;;;;;;5061143;28;20664;-64
2023/07/02 08:15:20;;;;;;;10.57;6.50;;;;;;;;;;5061032;28;20287;-65
2023/07/02 08:17:48;;;;;;;6.57;4.87;;;;;;;;;;5060930;28;20642;-65
2023/07/02 08:20:17;;;;;;;6.90;5.10;;;;;;;;;;5060895;28;20265;-64
2023/07/02 08:22:44;;;;;;;6.40;4.43;;;;;;;;;;5061242;28;20288;-65
2023/07/02 08:25:12;;;;;;;15.10;10.23;;;;;;;;;;5060785;28;20580;-65
2023/07/02 08:27:40;;;;;;;14.57;9.10;;;;;;;;;;5068582;28;20649;-65
2023/07/02 08:30:09;;;;;;;7.47;5.40;;;;;;;;;;5044008;28;20227;-65
2023/07/02 08:32:37;;;;;;;7.83;5.97;;;;;;;;;;5050556;28;20248;-64
2023/07/02 08:35:05;;;;;;;7.70;5.40;;;;;;;;;;5041902;28;20203;-65
2023/07/02 08:37:33;;;;;;;7.43;5.27;;;;;;;;;;5070452;28;20209;-64
2023/07/02 08:40:00;;;;;;;7.43;4.50;;;;;;;;;;5046012;28;20302;-64
2023/07/02 08:42:29;;;;;;;7.17;5.03;;;;;;;;;;5047626;28;20293;-64
2023/07/02 08:44:58;;;;;;;7.90;4.80;;;;;;;;;;5047332;28;20229;-65
2023/07/02 08:47:27;;;;;;;6.50;4.47;;;;;;;;;;5064243;28;20200;-64
2023/07/02 08:49:55;;;;;;;8.73;5.20;;;;;;;;;;5065776;28;20220;-63
2023/07/02 08:52:23;;;;;;;5.60;4.47;;;;;;;;;;5066235;28;20204;-64
2023/07/02 08:54:51;;;;;;;7.23;5.00;;;;;;;;;;5066970;28;20285;-62
2023/07/02 08:57:21;;;;;;;8.83;4.77;;;;;;;;;;5066638;28;20540;-63
2023/07/02 08:59:51;;;;;;;8.13;4.73;;;;;;;;;;5064043;28;20223;-63
2023/07/02 09:02:19;;;;;;;7.50;5.67;;;;;;;;;;5069626;28;20256;-63
2023/07/02 09:04:48;;;;;;;8.67;5.43;;;;;;;;;;5071109;28;20222;-63
2023/07/02 09:07:16;;;;;;;7.57;4.70;;;;;;;;;;5067688;28;20254;-64
2023/07/02 09:09:47;;;;;;;7.70;4.83;;;;;;;;;;5068592;28;20226;-65
2023/07/02 09:12:25;;;;;;;7.50;4.57;;;;;;;;;;5068338;28;20203;-66
2023/07/02 09:14:56;;;;;;;9.63;5.23;;;;;;;;;;5065641;28;20201;-64
2023/07/02 09:17:28;;;;;;;6.20;4.73;;;;;;;;;;5065359;28;20207;-64
2023/07/02 09:19:58;;;;;;;9.20;5.10;;;;;;;;;;5069674;28;20214;-66
2023/07/02 09:22:26;;;;;;;9.47;6.23;;;;;;;;;;5065185;28;20237;-63
2023/07/02 09:24:54;;;;;;;6.57;4.87;;;;;;;;;;5064658;28;20223;-63
2023/07/02 09:27:22;;;;;;;7.10;4.83;;;;;;;;;;5069398;28;20207;-63
2023/07/02 09:29:51;;;;;;;6.27;4.50;;;;;;;;;;5068461;28;20222;-63
2023/07/02 09:32:25;;;;;;;5.87;4.87;;;;;;;;;;5066865;28;20335;-64
2023/07/02 09:34:54;;;;;;;7.27;5.27;;;;;;;;;;5066020;28;20199;-64
2023/07/02 09:37:24;;;;;;;7.97;4.50;;;;;;;;;;5065377;28;20219;-64
2023/07/02 09:39:52;;;;;;;6.00;4.70;;;;;;;;;;5067527;28;20236;-64
2023/07/02 09:42:20;;;;;;;7.83;4.33;;;;;;;;;;5067666;28;20204;-64
2023/07/02 09:44:49;;;;;;;7.50;5.37;;;;;;;;;;5065688;28;20270;-65
2023/07/02 09:47:19;;;;;;;6.57;4.53;;;;;;;;;;5064250;28;20204;-63
2023/07/02 09:49:50;;;;;;;9.10;5.10;;;;;;;;;;5067202;28;20217;-65
2023/07/02 09:52:18;;;;;;;10.13;5.47;;;;;;;;;;5068527;28;20198;-64
2023/07/02 09:54:47;;;;;;;8.40;5.40;;;;;;;;;;5062305;28;20201;-65
2023/07/02 09:57:15;;;;;;;7.33;5.30;;;;;;;;;;5066648;28;20202;-65
2023/07/02 09:59:42;;;;;;;8.97;5.37;;;;;;;;;;5062331;28;20200;-64
2023/07/02 10:02:10;;;;;;;6.37;4.73;;;;;;;;;;5068511;28;20198;-64
2023/07/02 10:04:42;;;;;;;5.53;4.03;;;;;;;;;;5065573;28;20221;-64
2023/07/02 10:07:10;;;;;;;6.53;4.90;;;;;;;;;;5069019;28;20666;-65
2023/07/02 10:09:39;;;;;;;7.63;4.90;;;;;;;;;;5063991;28;20873;-65
2023/07/02 10:12:17;;;;;;;8.77;5.70;;;;;;;;;;5065840;28;20209;-65
2023/07/02 10:14:45;;;;;;;8.80;5.90;;;;;;;;;;5065412;28;20190;-65
2023/07/02 10:17:23;;;;;;;7.73;5.63;;;;;;;;;;5066191;28;20215;-65
2023/07/02 10:19:52;;;;;;;8.97;5.67;;;;;;;;;;5065793;28;20249;-65
2023/07/02 10:22:20;;;;;;;7.77;5.53;;;;;;;;;;5067415;28;20211;-66
2023/07/02 10:25:00;;;;;;;9.77;5.70;;;;;;;;;;5066645;28;20654;-65
2023/07/02 10:27:50;;;;;;;10.00;5.63;;;;;;;;;;5062611;28;20264;-64
2023/07/02 10:30:31;;;;;;;6.73;5.60;;;;;;;;;;5069608;28;20226;-64
2023/07/02 10:33:08;;;;;;;9.93;6.10;;;;;;;;;;5066055;28;20569;-64
2023/07/02 10:35:36;;;;;;;8.17;5.67;;;;;;;;;;5065313;28;20198;-64
2023/07/02 10:38:06;;;;;;;7.43;5.57;;;;;;;;;;5064275;28;20207;-64
2023/07/02 10:40:34;;;;;;;8.20;5.33;;;;;;;;;;5040464;28;20260;-64
2023/07/02 10:43:04;;;;;;;9.33;5.10;;;;;;;;;;5038112;28;20574;-64
2023/07/02 10:45:32;;;;;;;7.40;5.30;;;;;;;;;;5038271;28;20257;-63
2023/07/02 10:48:00;;;;;;;7.07;5.53;;;;;;;;;;5038153;28;20218;-63
2023/07/02 10:50:28;;;;;;;7.10;4.87;;;;;;;;;;5038206;28;20234;-63
2023/07/02 10:52:56;;;;;;;7.30;5.47;;;;;;;;;;5038031;28;20229;-64
2023/07/02 10:55:24;;;;;;;8.53;4.80;;;;;;;;;;5037936;28;20241;-63
2023/07/02 10:58:03;;;;;;;8.80;5.80;;;;;;;;;;5037592;28;20573;-64
2023/07/02 11:00:32;;;;;;;8.07;5.37;;;;;;;;;;5043093;28;20252;-64
2023/07/02 11:03:01;;;;;;;7.33;5.00;;;;;;;;;;5037950;28;20615;-64
2023/07/02 11:05:29;;;;;;;6.93;4.97;;;;;;;;;;5040408;28;20355;-64
2023/07/02 11:08:08;;;;;;;7.87;5.17;;;;;;;;;;5048466;28;20257;-64
2023/07/02 11:10:36;;;;;;;7.93;5.37;;;;;;;;;;5037977;28;20226;-61
2023/07/02 11:13:11;;;;;;;9.23;6.33;;;;;;;;;;5037873;28;20206;-61
2023/07/02 11:15:41;;;;;;;6.23;4.97;;;;;;;;;;5037792;28;20297;-61
2023/07/02 11:18:12;;;;;;;10.13;7.50;;;;;;;;;;5037998;28;20207;-64
2023/07/02 11:20:40;;;;;;;6.83;5.23;;;;;;;;;;5037951;28;20322;-62
2023/07/02 11:23:17;;;;;;;5.50;4.40;;;;;;;;;;5037520;28;20214;-62
2023/07/02 11:25:54;;;;;;;6.53;4.97;;;;;;;;;;5037882;28;20309;-62
2023/07/02 11:28:22;;;;;;;7.43;5.73;;;;;;;;;;5037458;28;20572;-62
2023/07/02 11:30:51;;;;;;;6.13;4.80;;;;;;;;;;5037944;28;20237;-62
2023/07/02 11:33:19;;;;;;;8.83;5.23;;;;;;;;;;5036697;28;20292;-62
2023/07/02 11:35:47;;;;;;;6.63;4.80;;;;;;;;;;5037824;28;20662;-62
2023/07/02 11:38:15;;;;;;;8.10;4.77;;;;;;;;;;5037326;28;20214;-63
2023/07/02 11:40:43;;;;;;;8.10;5.20;;;;;;;;;;5047296;28;20225;-62
2023/07/02 11:43:11;;;;;;;5.93;4.10;;;;;;;;;;5037985;28;20550;-61
2023/07/02 11:45:39;;;;;;;7.67;4.53;;;;;;;;;;5037395;28;20252;-61
2023/07/02 11:48:08;;;;;;;5.43;4.00;;;;;;;;;;5044316;28;20293;-62
2023/07/02 11:50:35;;;;;;;6.40;4.30;;;;;;;;;;5057439;28;20236;-61
2023/07/02 11:53:03;;;;;;;4.93;3.50;;;;;;;;;;5057425;28;20318;-61
2023/07/02 11:55:31;;;;;;;3.90;3.53;;;;;;;;;;5053312;28;20202;-63
2023/07/02 11:57:59;;;;;;;5.27;3.97;;;;;;;;;;5047133;28;20208;-62
2023/07/02 12:00:27;;;;;;;7.87;4.30;;;;;;;;;;5044726;28;20283;-63
2023/07/02 12:02:55;;;;;;;8.67;5.53;;;;;;;;;;5042555;28;20219;-62
2023/07/02 12:05:25;;;;;;;6.50;4.53;;;;;;;;;;5038580;28;20666;-66
2023/07/02 12:07:53;;;;;;;9.33;5.83;;;;;;;;;;5042085;28;20209;-65
2023/07/02 12:10:20;;;;;;;8.47;5.40;;;;;;;;;;5036791;28;20831;-65
2023/07/02 12:12:48;;;;;;;7.80;4.90;;;;;;;;;;5036540;28;20210;-62
2023/07/02 12:15:16;;;;;;;6.03;4.83;;;;;;;;;;5046645;28;20333;-66
2023/07/02 12:17:45;;;;;;;5.40;4.30;;;;;;;;;;5038521;28;20244;-66
2023/07/02 12:20:13;;;;;;;5.40;4.30;;;;;;;;;;5056912;28;20238;-66
2023/07/02 12:22:44;;;;;;;9.47;5.13;;;;;;;;;;5056832;28;20210;-64
2023/07/02 12:25:12;;;;;;;6.17;4.30;;;;;;;;;;5056771;28;20645;-65
2023/07/02 12:27:39;;;;;;;6.80;4.63;;;;;;;;;;5039438;28;20290;-64
2023/07/02 12:30:08;;;;;;;6.43;4.60;;;;;;;;;;5037248;28;20293;-64
2023/07/02 12:32:36;;;;;;;7.77;5.30;;;;;;;;;;5036980;28;20245;-64
2023/07/02 12:35:04;;;;;;;6.60;5.10;;;;;;;;;;5037380;28;20206;-64
2023/07/02 12:37:33;;;;;;;9.97;7.40;;;;;;;;;;5037164;28;20211;-64
2023/07/02 12:40:02;;;;;;;8.90;6.23;;;;;;;;;;5041105;28;20227;-64
2023/07/02 12:42:30;;;;;;;8.80;5.37;;;;;;;;;;5036819;28;20265;-64
2023/07/02 12:44:58;;;;;;;11.13;6.47;;;;;;;;;;5039871;28;20297;-64
2023/07/02 12:47:26;;;;;;;6.83;4.70;;;;;;;;;;5040558;28;20298;-64
2023/07/02 12:49:54;;;;;;;9.20;5.50;;;;;;;;;;5040502;28;20238;-64
2023/07/02 12:52:21;;;;;;;8.00;5.73;;;;;;;;;;5040497;28;20209;-64
2023/07/02 12:54:49;;;;;;;9.70;6.40;;;;;;;;;;5040287;28;20281;-62
2023/07/02 12:57:19;;;;;;;10.40;6.00;;;;;;;;;;5047373;28;20204;-64
2023/07/02 12:59:47;;;;;;;6.67;4.80;;;;;;;;;;5060528;28;20255;-64
2023/07/02 13:02:14;;;;;;;6.60;4.77;;;;;;;;;;5044013;28;20283;-62
2023/07/02 13:04:42;;;;;;;7.13;4.83;;;;;;;;;;5040423;28;20223;-64
2023/07/02 13:07:10;;;;;;;7.97;5.20;;;;;;;;;;5052989;28;20232;-64
2023/07/02 13:09:38;;;;;;;7.57;4.50;;;;;;;;;;5039936;28;20267;-65
2023/07/02 13:12:07;;;;;;;5.83;4.10;;;;;;;;;;5040293;28;20212;-63
2023/07/02 13:14:36;;;;;;;6.50;4.13;;;;;;;;;;5039665;28;20277;-64
2023/07/02 13:17:05;;;;;;;5.13;3.83;;;;;;;;;;5040127;28;20207;-62
2023/07/02 13:19:33;;;;;;;5.83;3.80;;;;;;;;;;5039773;28;20291;-62
2023/07/02 13:22:00;;;;;;;6.30;4.40;;;;;;;;;;5039913;28;20204;-63
2023/07/02 13:24:29;;;;;;;5.77;3.90;;;;;;;;;;5039473;28;20581;-64
2023/07/02 13:26:56;;;;;;;6.17;3.23;;;;;;;;;;5039871;28;20237;-64
2023/07/02 13:29:24;;;;;;;6.30;3.70;;;;;;;;;;5039624;28;20209;-64
2023/07/02 13:31:53;;;;;;;3.00;2.57;;;;;;;;;;5046242;28;20276;-62
2023/07/02 13:34:21;;;;;;;5.03;3.00;;;;;;;;;;5059645;28;20206;-65
2023/07/02 13:36:49;;;;;;;4.23;3.30;;;;;;;;;;5054253;28;20202;-64
2023/07/02 13:39:17;;;;;;;9.23;4.30;;;;;;;;;;5056834;28;20214;-64
2023/07/02 13:41:44;;;;;;;4.17;3.13;;;;;;;;;;5048415;28;20225;-64
2023/07/02 13:44:12;;;;;;;3.43;2.73;;;;;;;;;;5039407;28;20301;-65
2023/07/02 13:46:40;;;;;;;3.67;2.87;;;;;;;;;;5039376;28;20276;-65
2023/07/02 13:49:09;;;;;;;4.43;3.13;;;;;;;;;;5039434;28;20218;-65
2023/07/02 13:51:37;;;;;;;7.13;6.17;;;;;;;;;;5039139;28;20231;-65
2023/07/02 13:54:05;;;;;;;2.90;2.60;;;;;;;;;;5039414;28;20745;-65
2023/07/02 13:56:33;;;;;;;4.27;3.40;;;;;;;;;;5038435;28;20291;-65
2023/07/02 13:59:03;;;;;;;4.03;2.90;;;;;;;;;;5041611;28;20210;-65
2023/07/02 14:01:32;;;;;;;2.60;2.33;;;;;;;;;;5045451;28;20226;-65
2023/07/02 14:04:00;;;;;;;2.70;2.27;;;;;;;;;;5038972;28;20207;-65
2023/07/02 14:06:28;;;;;;;3.20;2.43;;;;;;;;;;5048726;28;20214;-65
2023/07/02 14:08:55;;;;;;;2.23;2.00;;;;;;;;;;5039152;28;20685;-65
2023/07/02 14:11:24;;;;;;;3.17;2.50;;;;;;;;;;5039051;28;20262;-65
2023/07/02 14:13:51;;;;;;;5.23;2.80;;;;;;;;;;5039076;28;20215;-64
2023/07/02 14:16:21;;;;;;;4.47;2.50;;;;;;;;;;5039007;28;20212;-65
2023/07/02 14:18:49;;;;;;;2.67;2.37;;;;;;;;;;5039055;28;20207;-67
2023/07/02 14:21:17;;;;;;;3.40;2.87;;;;;;;;;;5038665;28;20745;-63
2023/07/02 14:23:45;;;;;;;3.90;3.13;;;;;;;;;;5038993;28;20295;-65
2023/07/02 14:26:13;;;;;;;5.10;3.27;;;;;;;;;;5038606;28;20554;-65
2023/07/02 14:28:41;;;;;;;3.47;2.90;;;;;;;;;;5038254;28;20571;-65
2023/07/02 14:31:09;;;;;;;3.20;2.90;;;;;;;;;;5038379;28;20314;-65
2023/07/02 14:33:38;;;;;;;5.80;3.07;;;;;;;;;;5038371;28;20728;-65
2023/07/02 14:36:07;;;;;;;4.97;3.50;;;;;;;;;;5045679;28;20201;-65